createdAt,value
2019-01-23T00:00:58.917Z,100935.69
2019-01-23T00:03:24.947Z,100936.64
2019-01-23T00:05:51.368Z,100929.38
2019-01-23T00:08:17.666Z,100934.10
2019-01-23T00:10:43.682Z,100929.38
2019-01-23T00:13:09.595Z,100930.23
2019-01-23T00:15:35.678Z,100921.68
2019-01-23T00:18:01.611Z,100932.44
2019-01-23T00:20:27.745Z,100927.72
2019-01-23T00:22:53.686Z,100941.87
2019-01-23T00:25:19.671Z,100930.67
2019-01-23T00:27:45.736Z,100933.59
2019-01-23T00:30:13.453Z,100934.84
2019-01-23T00:32:39.475Z,100934.84
2019-01-23T00:35:06.191Z,100932.22
2019-01-23T00:37:32.308Z,100936.09
2019-01-23T00:39:58.359Z,100933.52
2019-01-23T00:42:24.370Z,100928.35
2019-01-23T00:44:50.291Z,100935.21
2019-01-23T00:47:16.325Z,100937.34
2019-01-23T00:49:44.278Z,100938.13
2019-01-23T00:52:10.262Z,100937.27
2019-01-23T00:54:36.497Z,100934.55
2019-01-23T00:57:02.608Z,100934.55
2019-01-23T00:59:28.507Z,100931.93
2019-01-23T01:01:54.664Z,100926.73
2019-01-23T01:04:20.590Z,100931.48
2019-01-23T01:06:46.801Z,100921.61
2019-01-23T01:09:12.689Z,100926.36
2019-01-23T01:11:38.710Z,100922.97
2019-01-23T01:14:05.025Z,100916.83
2019-01-23T01:16:31.145Z,100927.14
2019-01-23T01:18:57.301Z,100932.26
2019-01-23T01:21:23.184Z,100932.66
2019-01-23T01:23:49.189Z,100933.14
2019-01-23T01:26:15.356Z,100928.80
2019-01-23T01:28:41.383Z,100931.34
2019-01-23T01:31:07.302Z,100933.47
2019-01-23T01:33:34.098Z,100935.13
2019-01-23T01:36:00.041Z,100934.20
2019-01-23T01:38:26.399Z,100939.32
2019-01-23T01:40:52.522Z,100944.89
2019-01-23T01:43:18.649Z,100942.67
2019-01-23T01:45:44.558Z,100937.07
2019-01-23T01:48:10.481Z,100948.12
2019-01-23T01:50:36.585Z,100945.02
2019-01-23T01:53:02.787Z,100939.75
2019-01-23T01:55:28.928Z,100939.63
2019-01-23T01:57:56.848Z,100941.64
2019-01-23T02:00:23.267Z,100943.70
2019-01-23T02:02:49.321Z,100941.92
2019-01-23T02:05:15.452Z,100947.08
2019-01-23T02:07:41.810Z,100949.58
2019-01-23T02:10:11.017Z,100949.50
2019-01-23T02:12:37.136Z,100948.89
2019-01-23T02:15:05.939Z,100946.63
2019-01-23T02:17:31.836Z,100949.52
2019-01-23T02:19:57.869Z,100945.61
2019-01-23T02:22:23.895Z,100960.58
2019-01-23T02:24:49.884Z,100950.20
2019-01-23T02:27:15.924Z,100967.70
2019-01-23T02:29:42.046Z,100969.80
2019-01-23T02:32:07.995Z,100968.46
2019-01-23T02:34:33.931Z,100961.09
2019-01-23T02:36:59.922Z,100959.72
2019-01-23T02:39:26.114Z,100958.75
2019-01-23T02:41:52.121Z,100957.51
2019-01-23T02:44:20.680Z,100966.24
2019-01-23T02:46:46.755Z,100977.96
2019-01-23T02:49:12.646Z,100981.55
2019-01-23T02:51:38.653Z,100980.34
2019-01-23T02:54:04.598Z,100980.84
2019-01-23T02:56:30.485Z,100986.52
2019-01-23T02:58:56.411Z,100989.17
2019-01-23T03:01:22.430Z,100980.25
2019-01-23T03:03:48.362Z,100984.16
2019-01-23T03:06:14.456Z,100980.30
2019-01-23T03:08:40.588Z,100986.30
2019-01-23T03:11:06.748Z,100982.91
2019-01-23T03:13:32.753Z,100980.38
2019-01-23T03:15:58.740Z,100985.09
2019-01-23T03:18:24.817Z,100983.92
2019-01-23T03:20:51.066Z,100996.37
2019-01-23T03:23:16.963Z,100988.59
2019-01-23T03:25:42.878Z,100988.55
2019-01-23T03:28:08.983Z,100984.60
2019-01-23T03:30:34.906Z,100985.45
2019-01-23T03:33:00.829Z,100981.58
2019-01-23T03:35:26.966Z,100988.83
2019-01-23T03:37:52.867Z,100996.61
2019-01-23T03:40:20.104Z,100994.47
2019-01-23T03:42:46.234Z,100997.04
2019-01-23T03:45:13.765Z,100990.96
2019-01-23T03:47:39.760Z,100990.88
2019-01-23T03:50:09.097Z,100994.73
2019-01-23T03:52:35.005Z,100997.71
2019-01-23T03:55:01.218Z,101001.48
2019-01-23T03:57:27.359Z,101001.93
2019-01-23T03:59:53.484Z,100998.88
2019-01-23T04:02:19.477Z,100997.98
2019-01-23T04:04:45.504Z,100979.51
2019-01-23T04:07:11.607Z,100979.51
2019-01-23T04:09:37.456Z,100985.99
2019-01-23T04:12:03.591Z,100987.67
2019-01-23T04:14:29.603Z,100990.70
2019-01-23T04:16:55.616Z,100994.24
2019-01-23T04:19:21.611Z,100999.44
2019-01-23T04:21:47.771Z,100995.98
2019-01-23T04:24:13.895Z,100993.77
2019-01-23T04:26:39.811Z,100996.38
2019-01-23T04:29:05.856Z,100998.16
2019-01-23T04:31:31.747Z,100992.56
2019-01-23T04:33:57.667Z,100993.04
2019-01-23T04:36:23.779Z,100990.87
2019-01-23T04:38:49.814Z,100998.59
2019-01-23T04:41:16.005Z,100997.31
2019-01-23T04:43:41.922Z,101004.16
2019-01-23T04:46:07.958Z,101004.11
2019-01-23T04:48:33.896Z,101002.82
2019-01-23T04:51:18.458Z,101003.17
2019-01-23T04:53:45.669Z,101006.16
2019-01-23T04:56:11.792Z,101008.73
2019-01-23T04:58:37.677Z,101004.83
2019-01-23T05:01:03.991Z,101009.94
2019-01-23T05:03:30.111Z,101006.47
2019-01-23T05:05:56.196Z,101008.60
2019-01-23T05:08:22.345Z,101014.64
2019-01-23T05:10:48.231Z,101010.34
2019-01-23T05:13:14.351Z,100999.98
2019-01-23T05:15:40.413Z,100999.98
2019-01-23T05:18:06.515Z,101003.53
2019-01-23T05:20:32.545Z,101012.11
2019-01-23T05:22:58.643Z,101020.23
2019-01-23T05:25:24.678Z,101019.79
2019-01-23T05:27:50.687Z,101025.34
2019-01-23T05:30:19.659Z,101029.20
2019-01-23T05:32:45.683Z,101025.25
2019-01-23T05:35:11.966Z,101034.63
2019-01-23T05:37:38.078Z,101028.98
2019-01-23T05:40:06.794Z,101031.52
2019-01-23T05:42:33.105Z,101032.77
2019-01-23T05:44:59.002Z,101033.08
2019-01-23T05:47:24.901Z,101033.43
2019-01-23T05:49:50.929Z,101036.40
2019-01-23T05:52:17.062Z,101033.25
2019-01-23T05:54:42.984Z,101034.98
2019-01-23T05:57:08.966Z,101040.08
2019-01-23T05:59:34.995Z,101044.30
2019-01-23T06:02:01.163Z,101044.75
2019-01-23T06:04:27.162Z,101049.45
2019-01-23T06:06:53.288Z,101060.94
2019-01-23T06:09:19.313Z,101047.09
2019-01-23T06:11:45.215Z,101053.87
2019-01-23T06:14:11.267Z,101055.42
2019-01-23T06:16:37.413Z,101049.25
2019-01-23T06:19:03.496Z,101052.66
2019-01-23T06:21:29.408Z,101054.04
2019-01-23T06:23:55.421Z,101058.88
2019-01-23T06:26:21.347Z,101061.50
2019-01-23T06:28:47.376Z,101071.01
2019-01-23T06:31:13.399Z,101070.13
2019-01-23T06:33:39.347Z,101070.96
2019-01-23T06:36:05.249Z,101077.39
2019-01-23T06:38:31.359Z,101078.23
2019-01-23T06:40:57.498Z,101079.88
2019-01-23T06:43:23.663Z,101083.25
2019-01-23T06:45:49.692Z,101081.16
2019-01-23T06:48:15.698Z,101085.07
2019-01-23T06:50:41.631Z,101087.70
2019-01-23T06:53:13.820Z,101089.87
2019-01-23T06:55:35.582Z,101089.48
2019-01-23T06:58:01.508Z,101089.91
2019-01-23T07:00:27.470Z,101093.39
2019-01-23T07:02:53.613Z,101099.02
2019-01-23T07:05:19.827Z,101104.57
2019-01-23T07:07:45.958Z,101097.25
2019-01-23T07:10:15.416Z,101107.98
2019-01-23T07:12:41.323Z,101098.44
2019-01-23T07:15:09.611Z,101109.13
2019-01-23T07:17:35.661Z,101111.56
2019-01-23T07:20:01.765Z,101115.43
2019-01-23T07:22:27.781Z,101115.43
2019-01-23T07:24:53.854Z,101106.86
2019-01-23T07:27:19.873Z,101113.29
2019-01-23T07:29:46.088Z,101116.27
2019-01-23T07:32:12.131Z,101117.55
2019-01-23T07:34:38.059Z,101120.12
2019-01-23T07:37:04.164Z,101134.38
2019-01-23T07:39:30.157Z,101128.43
2019-01-23T07:41:57.083Z,101126.71
2019-01-23T07:44:23.503Z,101123.23
2019-01-23T07:46:49.523Z,101125.86
2019-01-23T07:49:15.659Z,101134.44
2019-01-23T07:51:41.549Z,101133.68
2019-01-23T07:54:07.464Z,101137.98
2019-01-23T07:56:33.484Z,101133.30
2019-01-23T07:58:59.494Z,101132.10
2019-01-23T08:01:25.954Z,101131.39
2019-01-23T08:03:51.972Z,101133.67
2019-01-23T08:06:18.072Z,101133.77
2019-01-23T08:08:44.088Z,101129.96
2019-01-23T08:11:10.199Z,101134.35
2019-01-23T08:13:36.350Z,101133.56
2019-01-23T08:16:02.533Z,101129.80
2019-01-23T08:18:28.629Z,101133.80
2019-01-23T08:20:54.659Z,101134.73
2019-01-23T08:23:20.776Z,101135.22
2019-01-23T08:25:46.797Z,101138.78
2019-01-23T08:28:12.686Z,101138.47
2019-01-23T08:30:40.831Z,101141.14
2019-01-23T08:33:06.663Z,101132.57
2019-01-23T08:35:32.804Z,101142.09
2019-01-23T08:37:58.726Z,101142.19
2019-01-23T08:40:24.846Z,101139.70
2019-01-23T08:42:50.968Z,101137.61
2019-01-23T08:45:17.476Z,101144.55
2019-01-23T08:47:43.582Z,101134.72
2019-01-23T08:50:22.391Z,101145.87
2019-01-23T08:52:48.278Z,101148.00
2019-01-23T08:55:14.419Z,101163.47
2019-01-23T08:57:40.537Z,101154.50
2019-01-23T09:00:10.167Z,101152.84
2019-01-23T09:02:36.303Z,101154.23
2019-01-23T09:05:04.128Z,101151.74
2019-01-23T09:07:30.165Z,101144.05
2019-01-23T09:09:56.170Z,101145.39
2019-01-23T09:12:22.337Z,101142.37
2019-01-23T09:14:48.222Z,101139.39
2019-01-23T09:17:14.209Z,101150.72
2019-01-23T09:19:40.271Z,101152.55
2019-01-23T09:22:06.185Z,101146.59
2019-01-23T09:24:32.113Z,101157.04
2019-01-23T09:26:58.274Z,101159.34
2019-01-23T09:29:24.173Z,101150.84
2019-01-23T09:32:05.778Z,101151.78
2019-01-23T09:34:53.520Z,101149.29
2019-01-23T09:37:29.034Z,101152.39
2019-01-23T09:40:17.138Z,101152.00
2019-01-23T09:42:49.596Z,101146.84
2019-01-23T09:45:28.400Z,101143.02
2019-01-23T09:48:10.297Z,101149.09
2019-01-23T09:50:49.132Z,101158.66
2019-01-23T09:53:21.639Z,101157.01
2019-01-23T09:55:47.637Z,101101.95
2019-01-23T09:58:13.571Z,101164.42
2019-01-23T10:00:39.707Z,101165.76
2019-01-23T10:03:05.727Z,101160.20
2019-01-23T10:05:31.862Z,101170.20
2019-01-23T10:07:57.999Z,101166.86
2019-01-23T10:10:23.953Z,101174.67
2019-01-23T10:12:50.039Z,101173.88
2019-01-23T10:15:19.763Z,101171.78
2019-01-23T10:17:45.920Z,101176.54
2019-01-23T10:20:13.873Z,101175.73
2019-01-23T10:22:39.992Z,101170.66
2019-01-23T10:25:06.120Z,101172.03
2019-01-23T10:27:32.123Z,101170.82
2019-01-23T10:29:58.154Z,101179.89
2019-01-23T10:32:24.198Z,101183.41
2019-01-23T10:34:50.094Z,101185.22
2019-01-23T10:37:19.611Z,101189.98
2019-01-23T10:39:44.267Z,101191.31
2019-01-23T10:42:10.376Z,101195.66
2019-01-23T10:44:36.439Z,101192.23
2019-01-23T10:47:02.839Z,101197.41
2019-01-23T10:49:28.921Z,101202.56
2019-01-23T10:51:54.834Z,101203.77
2019-01-23T10:54:20.953Z,101204.66
2019-01-23T10:56:48.990Z,101202.92
2019-01-23T10:59:14.910Z,101208.98
2019-01-23T11:01:41.008Z,101212.00
2019-01-23T11:04:07.151Z,101222.41
2019-01-23T11:06:33.381Z,101213.86
2019-01-23T11:08:59.272Z,101215.23
2019-01-23T11:11:25.312Z,101217.45
2019-01-23T11:13:51.422Z,101217.94
2019-01-23T11:16:17.450Z,101213.62
2019-01-23T11:18:43.840Z,101219.34
2019-01-23T11:21:10.017Z,101222.82
2019-01-23T11:23:36.234Z,101222.45
2019-01-23T11:26:02.802Z,101219.91
2019-01-23T11:28:28.925Z,101216.52
2019-01-23T11:30:55.078Z,101215.34
2019-01-23T11:33:21.077Z,101218.00
2019-01-23T11:35:46.988Z,101217.61
2019-01-23T11:38:13.110Z,101217.69
2019-01-23T11:40:39.457Z,101214.25
2019-01-23T11:43:05.590Z,101215.62
2019-01-23T11:45:31.704Z,101219.09
2019-01-23T11:47:58.161Z,101226.11
2019-01-23T11:50:24.271Z,101210.41
2019-01-23T11:52:50.801Z,101222.39
2019-01-23T11:55:17.045Z,101228.04
2019-01-23T11:57:43.074Z,101236.75
2019-01-23T12:00:18.011Z,101239.82
2019-01-23T12:02:44.035Z,101240.37
2019-01-23T12:05:12.636Z,101243.00
2019-01-23T12:07:38.803Z,101240.94
2019-01-23T12:10:08.502Z,101246.55
2019-01-23T12:12:34.429Z,101245.81
2019-01-23T12:15:00.362Z,101243.30
2019-01-23T12:17:26.440Z,101246.85
2019-01-23T12:19:52.328Z,101239.17
2019-01-23T12:22:18.357Z,101244.92
2019-01-23T12:24:44.516Z,101244.92
2019-01-23T12:27:10.394Z,101247.22
2019-01-23T12:29:36.439Z,101248.58
2019-01-23T12:32:02.867Z,101246.88
2019-01-23T12:34:28.795Z,101241.38
2019-01-23T12:36:54.790Z,101249.20
2019-01-23T12:39:20.949Z,101254.00
2019-01-23T12:41:47.084Z,101260.10
2019-01-23T12:44:13.097Z,101258.47
2019-01-23T12:46:39.210Z,101266.30
2019-01-23T12:49:05.528Z,101271.14
2019-01-23T12:51:31.407Z,101263.41
2019-01-23T12:53:57.322Z,101266.95
2019-01-23T12:56:23.325Z,101266.11
2019-01-23T12:58:49.248Z,101282.95
2019-01-23T13:01:15.695Z,101270.42
2019-01-23T13:03:41.891Z,101271.34
2019-01-23T13:06:07.997Z,101274.82
2019-01-23T13:08:33.952Z,101280.87
2019-01-23T13:10:59.973Z,101287.83
2019-01-23T13:13:26.102Z,101289.56
2019-01-23T13:15:52.217Z,101296.91
2019-01-23T13:18:18.265Z,101244.03
2019-01-23T13:20:44.301Z,101294.81
2019-01-23T13:23:10.230Z,101309.04
2019-01-23T13:25:36.272Z,101318.13
2019-01-23T13:28:02.603Z,101311.70
2019-01-23T13:30:28.723Z,101317.80
2019-01-23T13:32:55.039Z,101322.53
2019-01-23T13:35:27.008Z,101322.53
2019-01-23T13:37:53.197Z,101337.72
2019-01-23T13:40:31.191Z,101332.58
2019-01-23T13:42:57.338Z,101339.02
2019-01-23T13:45:23.473Z,101339.02
2019-01-23T13:47:49.622Z,101342.52
2019-01-23T13:50:15.884Z,101352.39
2019-01-23T13:52:41.976Z,101357.16
2019-01-23T13:55:10.911Z,101348.06
2019-01-23T13:57:36.897Z,101351.06
2019-01-23T14:00:06.791Z,101363.22
2019-01-23T14:02:32.786Z,101358.49
2019-01-23T14:04:58.728Z,101368.92
2019-01-23T14:07:24.631Z,101368.92
2019-01-23T14:09:50.780Z,101369.43
2019-01-23T14:12:16.986Z,101375.94
2019-01-23T14:14:42.914Z,101384.04
2019-01-23T14:17:08.923Z,101384.04
2019-01-23T14:19:34.830Z,101387.95
2019-01-23T14:22:00.740Z,101395.72
2019-01-23T14:24:26.737Z,101390.10
2019-01-23T14:26:52.789Z,101343.16
2019-01-23T14:29:18.712Z,101398.64
2019-01-23T14:31:44.717Z,101397.31
2019-01-23T14:34:10.659Z,101398.61
2019-01-23T14:36:36.565Z,101401.12
2019-01-23T14:39:05.324Z,101402.83
2019-01-23T14:41:31.361Z,101411.06
2019-01-23T14:43:57.302Z,101411.52
2019-01-23T14:46:23.192Z,101414.55
2019-01-23T14:48:49.204Z,101409.37
2019-01-23T14:51:15.572Z,101414.09
2019-01-23T14:53:41.424Z,101413.17
2019-01-23T14:56:07.533Z,101410.95
2019-01-23T14:58:33.456Z,101414.36
2019-01-23T15:00:59.375Z,101413.88
2019-01-23T15:03:25.318Z,101416.80
2019-01-23T15:05:51.441Z,101418.53
2019-01-23T15:08:17.380Z,101415.86
2019-01-23T15:10:43.272Z,101415.86
2019-01-23T15:13:09.342Z,101431.91
2019-01-23T15:15:35.348Z,101425.41
2019-01-23T15:18:01.405Z,101432.72
2019-01-23T15:20:36.346Z,101431.80
2019-01-23T15:23:02.489Z,101431.64
2019-01-23T15:25:28.585Z,101447.64
2019-01-23T15:27:54.714Z,101446.72
2019-01-23T15:30:22.475Z,101445.34
2019-01-23T15:32:48.561Z,101445.34
2019-01-23T15:35:14.820Z,101439.57
2019-01-23T15:37:40.804Z,101450.28
2019-01-23T15:40:13.329Z,101450.16
2019-01-23T15:42:39.520Z,101400.33
2019-01-23T15:45:08.450Z,101400.33
2019-01-23T15:47:34.467Z,101470.33
2019-01-23T15:50:00.465Z,101470.33
2019-01-23T15:52:26.775Z,101471.21
2019-01-23T15:54:52.780Z,101479.45
2019-01-23T15:57:18.926Z,101481.23
2019-01-23T15:59:45.077Z,101483.38
2019-01-23T16:02:11.069Z,101483.38
2019-01-23T16:04:36.997Z,101484.63
2019-01-23T16:07:04.090Z,101486.73
2019-01-23T16:09:30.225Z,101492.30
2019-01-23T16:11:56.232Z,101492.35
2019-01-23T16:14:22.276Z,101502.33
2019-01-23T16:16:48.282Z,101502.41
2019-01-23T16:19:14.334Z,101504.56
2019-01-23T16:21:45.612Z,101501.94
2019-01-23T16:24:08.589Z,101504.52
2019-01-23T16:26:34.636Z,101505.86
2019-01-23T16:29:00.645Z,101506.74
2019-01-23T16:31:27.106Z,101510.22
2019-01-23T16:33:53.008Z,101512.84
2019-01-23T16:36:18.984Z,101521.09
2019-01-23T16:38:45.021Z,101497.08
2019-01-23T16:41:10.962Z,101521.66
2019-01-23T16:43:36.975Z,101525.09
2019-01-23T16:46:03.472Z,101526.44
2019-01-23T16:48:29.699Z,101525.58
2019-01-23T16:50:55.731Z,101525.58
2019-01-23T16:53:22.630Z,101539.45
2019-01-23T16:55:48.671Z,101546.36
2019-01-23T16:58:14.761Z,101546.36
2019-01-23T17:00:40.889Z,101551.50
2019-01-23T17:03:07.338Z,101547.98
2019-01-23T17:05:33.465Z,101547.48
2019-01-23T17:08:01.269Z,101553.88
2019-01-23T17:10:27.725Z,101554.72
2019-01-23T17:12:53.824Z,101551.56
2019-01-23T17:15:19.932Z,101551.56
2019-01-23T17:17:46.128Z,101568.50
2019-01-23T17:20:15.758Z,101551.16
2019-01-23T17:22:41.953Z,101551.16
2019-01-23T17:25:09.682Z,101549.42
2019-01-23T17:27:35.818Z,101549.42
2019-01-23T17:30:04.025Z,101567.12
2019-01-23T17:32:30.085Z,101562.39
2019-01-23T17:34:56.144Z,101570.20
2019-01-23T17:37:22.125Z,101575.02
2019-01-23T17:39:48.127Z,101577.64
2019-01-23T17:42:14.104Z,101579.83
2019-01-23T17:44:40.210Z,101582.29
2019-01-23T17:47:06.360Z,101590.98
2019-01-23T17:49:32.285Z,101594.86
2019-01-23T17:51:58.296Z,101594.86
2019-01-23T17:54:24.392Z,101598.78
2019-01-23T17:56:50.739Z,101602.71
2019-01-23T17:59:16.994Z,101616.53
2019-01-23T18:01:43.015Z,101616.53
2019-01-23T18:04:09.015Z,101611.41
2019-01-23T18:06:35.031Z,101616.63
2019-01-23T18:09:01.178Z,101622.25
2019-01-23T18:11:27.190Z,101622.69
2019-01-23T18:13:53.316Z,101623.98
2019-01-23T18:16:19.432Z,101632.59
2019-01-23T18:18:45.537Z,101631.39
2019-01-23T18:21:11.469Z,101631.39
2019-01-23T18:23:37.577Z,101647.31
2019-01-23T18:26:03.813Z,101644.23
2019-01-23T18:28:29.838Z,101647.17
2019-01-23T18:30:59.577Z,101654.50
2019-01-23T18:33:41.144Z,101654.50
2019-01-23T18:36:23.070Z,101658.38
2019-01-23T18:39:10.710Z,101660.02
2019-01-23T18:41:43.541Z,101668.77
2019-01-23T18:44:34.257Z,101665.38
2019-01-23T18:47:07.075Z,101671.89
2019-01-23T18:49:36.804Z,101676.67
2019-01-23T18:52:09.528Z,101676.67
2019-01-23T18:54:35.807Z,101680.55
2019-01-23T18:57:01.970Z,101680.55
2019-01-23T18:59:27.886Z,101684.03
2019-01-23T19:01:53.885Z,101693.97
2019-01-23T19:04:20.046Z,101686.16
2019-01-23T19:06:46.129Z,101687.81
2019-01-23T19:09:12.147Z,101645.17
2019-01-23T19:11:38.158Z,101702.50
2019-01-23T19:14:04.272Z,101702.50
2019-01-23T19:16:30.531Z,101703.39
2019-01-23T19:18:56.835Z,101703.39
2019-01-23T19:21:22.935Z,101700.35
2019-01-23T19:23:48.968Z,101711.55
2019-01-23T19:26:14.987Z,101708.11
2019-01-23T19:28:41.085Z,101708.11
2019-01-23T19:31:07.239Z,101712.80
2019-01-23T19:33:33.266Z,101718.51
2019-01-23T19:35:59.522Z,101721.95
2019-01-23T19:38:25.425Z,101719.00
2019-01-23T19:40:51.556Z,101717.98
2019-01-23T19:43:17.594Z,101732.25
2019-01-23T19:45:43.705Z,101736.04
2019-01-23T19:48:09.682Z,101741.52
2019-01-23T19:50:35.801Z,101744.95
2019-01-23T19:53:01.727Z,101744.95
2019-01-23T19:55:27.788Z,101752.67
2019-01-23T19:57:53.824Z,101750.03
2019-01-23T20:00:20.547Z,101750.08
2019-01-23T20:02:46.684Z,101753.20
2019-01-23T20:05:15.531Z,101753.20
2019-01-23T20:07:41.942Z,101764.36
2019-01-23T20:10:14.569Z,101760.38
2019-01-23T20:12:40.787Z,101767.30
2019-01-23T20:15:13.205Z,101766.40
2019-01-23T20:17:39.212Z,101773.22
2019-01-23T20:20:08.672Z,101773.17
2019-01-23T20:22:34.694Z,101781.38
2019-01-23T20:25:00.665Z,101776.65
2019-01-23T20:27:26.599Z,101776.65
2019-01-23T20:29:52.610Z,101786.11
2019-01-23T20:32:18.543Z,101790.09
2019-01-23T20:34:44.464Z,101788.44
2019-01-23T20:37:10.608Z,101797.00
2019-01-23T20:39:36.709Z,101792.27
2019-01-23T20:42:02.949Z,101791.42
2019-01-23T20:44:28.865Z,101803.60
2019-01-23T20:46:54.996Z,101803.60
2019-01-23T20:49:20.944Z,101806.06
2019-01-23T20:51:47.054Z,101803.95
2019-01-23T20:54:12.976Z,101810.83
2019-01-23T20:56:39.193Z,101814.56
2019-01-23T20:59:05.181Z,101818.19
2019-01-23T21:01:31.209Z,101822.12
2019-01-23T21:03:57.212Z,101828.98
2019-01-23T21:06:23.251Z,101830.37
2019-01-23T21:08:49.260Z,101830.37
2019-01-23T21:11:15.190Z,101821.86
2019-01-23T21:13:41.301Z,101821.86
2019-01-23T21:16:07.453Z,101832.56
2019-01-23T21:18:33.460Z,101826.45
2019-01-23T21:20:59.564Z,101831.98
2019-01-23T21:23:25.603Z,101837.95
2019-01-23T21:25:51.808Z,101837.10
2019-01-23T21:28:17.931Z,101845.80
2019-01-23T21:30:44.028Z,101838.83
2019-01-23T21:33:09.990Z,101838.83
2019-01-23T21:35:36.099Z,101844.56
2019-01-23T21:38:02.192Z,101845.05
2019-01-23T21:40:29.608Z,101852.02
2019-01-23T21:42:55.528Z,101852.86
2019-01-23T21:45:21.652Z,101852.32
2019-01-23T21:47:49.493Z,101862.57
2019-01-23T21:50:17.635Z,101856.05
2019-01-23T21:52:43.635Z,101862.42
2019-01-23T21:55:12.474Z,101862.42
2019-01-23T21:57:38.578Z,101864.45
2019-01-23T22:00:19.815Z,101870.03
2019-01-23T22:02:45.918Z,101873.02
2019-01-23T22:05:13.252Z,101873.02
2019-01-23T22:07:39.413Z,101878.63
2019-01-23T22:10:08.907Z,101878.63
2019-01-23T22:12:34.918Z,101897.19
2019-01-23T22:15:01.066Z,101891.52
2019-01-23T22:17:27.209Z,101902.61
2019-01-23T22:19:53.132Z,101902.61
2019-01-23T22:22:19.035Z,101908.63
2019-01-23T22:24:44.957Z,101908.22
2019-01-23T22:27:10.869Z,101915.92
2019-01-23T22:29:36.902Z,101913.58
2019-01-23T22:32:03.104Z,101913.83
2019-01-23T22:34:29.000Z,101918.78
2019-01-23T22:36:54.932Z,101916.82
2019-01-23T22:39:20.832Z,101925.66
2019-01-23T22:41:46.932Z,101921.66
2019-01-23T22:44:12.997Z,101928.93
2019-01-23T22:46:39.011Z,101928.05
2019-01-23T22:49:05.005Z,101928.05
2019-01-23T22:51:30.950Z,101933.70
2019-01-23T22:53:56.960Z,101934.97
2019-01-23T22:56:22.977Z,101939.25
2019-01-23T22:58:48.995Z,101944.91
2019-01-23T23:01:18.342Z,101939.19
2019-01-23T23:03:44.644Z,101939.19
2019-01-23T23:06:10.688Z,101946.60
2019-01-23T23:08:36.607Z,101946.38
2019-01-23T23:11:03.133Z,101946.38
2019-01-23T23:13:29.125Z,101954.08
2019-01-23T23:15:55.065Z,101950.20
2019-01-23T23:18:20.985Z,101946.67
2019-01-23T23:20:47.088Z,101962.13
2019-01-23T23:23:13.006Z,101963.64
2019-01-23T23:25:39.156Z,101968.58
2019-01-23T23:28:05.344Z,101972.78
2019-01-23T23:30:31.374Z,101973.90
2019-01-23T23:32:57.414Z,101965.36
2019-01-23T23:35:23.428Z,101974.78
2019-01-23T23:37:49.575Z,101974.78
2019-01-23T23:40:15.677Z,101979.52
2019-01-23T23:42:42.290Z,101979.95
2019-01-23T23:45:11.193Z,101983.44
2019-01-23T23:47:37.449Z,101985.38
2019-01-23T23:50:07.053Z,101984.86
2019-01-23T23:52:32.944Z,101987.84
2019-01-23T23:54:58.861Z,101990.31
2019-01-23T23:57:24.869Z,102002.77
2019-01-23T23:59:51.111Z,101999.22
